Time;durP1;ratioP1;P1;durP2;ratioP2;P2;SDS_P1;SDS_P2;PMS_P1;PMS_P2;Temp;Humidity;BMP_temperature;BMP_pressure;BME280_temperature;BME280_humidity;BME280_pressure;Samples;Min_cycle;Max_cycle;Signal;HPM_P1;HPM_P2
2022/05/03 00:02:11;;;;;;;5.60;1.30;;;;;;;9.48;59.00;101096.88;106919;1287;60484;-78
2022/05/03 00:04:50;;;;;;;3.60;1.00;;;;;;;9.44;59.00;101094.51;106823;1287;76005;-77
2022/05/03 00:07:24;;;;;;;1.20;0.80;;;;;;;9.41;59.19;101096.75;106764;1288;72769;-77
2022/05/03 00:10:08;;;;;;;1.60;0.90;;;;;;;9.38;59.10;101093.65;106801;1287;73166;-77
2022/05/03 00:12:42;;;;;;;1.90;0.80;;;;;;;9.35;58.38;101095.76;106742;1288;61596;-77
2022/05/03 00:15:09;;;;;;;1.90;0.80;;;;;;;9.32;58.00;101096.02;106828;1287;60625;-77
2022/05/03 00:17:37;;;;;;;2.30;1.10;;;;;;;9.30;57.56;101094.54;106881;1285;76789;-77
2022/05/03 00:20:04;;;;;;;1.70;1.10;;;;;;;9.27;57.39;101096.90;106848;1287;72631;-77
2022/05/03 00:22:32;;;;;;;1.50;0.90;;;;;;;9.23;57.30;101097.84;106878;1287;73245;-77
2022/05/03 00:24:59;;;;;;;1.50;1.10;;;;;;;9.18;57.13;101097.34;106642;1288;61566;-77
2022/05/03 00:27:27;;;;;;;2.20;0.80;;;;;;;9.13;57.19;101092.91;106865;1287;60864;-77
2022/05/03 00:29:55;;;;;;;2.30;1.40;;;;;;;9.09;57.29;101092.61;106640;1287;74919;-77
2022/05/03 00:32:23;;;;;;;2.00;1.00;;;;;;;9.04;57.22;101090.58;106886;1286;72356;-77
2022/05/03 00:34:50;;;;;;;2.00;1.10;;;;;;;9.01;57.37;101094.52;106861;1287;74199;-77
2022/05/03 00:37:16;;;;;;;2.00;0.90;;;;;;;8.96;57.56;101095.27;106825;1287;59970;-77
2022/05/03 00:39:43;;;;;;;2.60;0.90;;;;;;;8.92;57.56;101094.42;106709;1288;60888;-77
2022/05/03 00:42:17;;;;;;;3.00;0.90;;;;;;;8.88;57.73;101095.71;106867;1288;75499;-77
2022/05/03 00:45:04;;;;;;;2.50;0.80;;;;;;;8.83;57.76;101092.71;106687;1288;72394;-77
2022/05/03 00:47:54;;;;;;;3.20;0.90;;;;;;;8.78;57.93;101093.79;106857;1286;74500;-77
2022/05/03 00:50:24;;;;;;;3.70;0.90;;;;;;;8.71;57.87;101096.55;106860;1287;59239;-77
2022/05/03 00:52:55;;;;;;;0.90;0.60;;;;;;;8.66;57.89;101100.03;106851;1287;60392;-77
2022/05/03 00:55:31;;;;;;;1.60;0.80;;;;;;;8.62;57.86;101094.14;106901;1287;74986;-77
2022/05/03 00:58:15;;;;;;;2.50;1.00;;;;;;;8.56;57.72;101096.48;106821;1287;72605;-77
2022/05/03 01:01:09;;;;;;;4.10;1.00;;;;;;;8.50;57.71;101093.66;106804;1287;73149;-77
2022/05/03 01:04:12;;;;;;;2.30;1.00;;;;;;;8.46;57.80;101091.98;106870;1287;59358;-77
2022/05/03 01:06:53;;;;;;;3.60;0.90;;;;;;;8.40;57.73;101094.30;106848;1287;59898;-77
2022/05/03 01:09:43;;;;;;;2.30;0.80;;;;;;;8.35;57.62;101090.53;106833;1287;75956;-77
2022/05/03 01:12:29;;;;;;;3.90;0.70;;;;;;;8.31;57.73;101092.58;106866;1286;71943;-77
2022/05/03 01:15:14;;;;;;;2.60;0.80;;;;;;;8.26;57.50;101092.14;106874;1287;72948;-77
2022/05/03 01:18:10;;;;;;;2.50;0.90;;;;;;;8.23;57.71;101089.63;106803;1287;60032;-77
2022/05/03 01:21:01;;;;;;;1.00;0.60;;;;;;;8.20;57.55;101089.10;106916;1287;60817;-77
2022/05/03 01:23:55;;;;;;;1.30;0.50;;;;;;;8.15;57.38;101089.80;106860;1286;76068;-77
2022/05/03 01:26:59;;;;;;;0.90;0.70;;;;;;;8.12;57.66;101084.99;106867;1287;71431;-77
2022/05/03 01:29:32;;;;;;;1.10;0.60;;;;;;;8.09;57.67;101084.83;106870;1287;74084;-77
2022/05/03 01:32:06;;;;;;;1.30;0.60;;;;;;;8.06;57.87;101083.72;106873;1286;59451;-77
2022/05/03 01:34:34;;;;;;;0.90;0.70;;;;;;;8.02;57.91;101088.84;106900;1287;60756;-77
2022/05/03 01:37:00;;;;;;;1.90;0.50;;;;;;;7.97;58.01;101089.16;106740;1288;75026;-77
2022/05/03 01:40:09;;;;;;;1.60;0.60;;;;;;;7.91;58.12;101086.67;106849;1287;59402;-78
2022/05/03 01:42:57;;;;;;;3.40;0.70;;;;;;;7.84;57.96;101086.38;106436;1288;74050;-77
2022/05/03 01:45:29;;;;;;;1.40;0.70;;;;;;;7.77;58.34;101084.39;106890;1285;60603;-77
2022/05/03 01:50:18;;;;;;;1.30;0.80;;;;;;;7.68;58.59;101085.72;106786;1287;61590;-77
2022/05/03 01:51:37;;;;;;;1.00;0.50;;;;;;;7.58;58.70;101087.02;106880;1287;75107;-77
2022/05/03 01:54:27;;;;;;;1.00;0.40;;;;;;;7.49;58.87;101085.83;106863;1287;72537;-77
2022/05/03 01:57:22;;;;;;;1.90;0.60;;;;;;;7.39;59.45;101087.09;106385;1288;74327;-77
2022/05/03 02:00:10;;;;;;;3.20;0.80;;;;;;;7.28;59.66;101084.77;106899;1287;59945;-77
2022/05/03 02:02:56;;;;;;;1.80;0.70;;;;;;;7.18;59.59;101080.58;106866;1287;59623;-77
2022/05/03 02:05:43;;;;;;;1.00;0.60;;;;;;;7.09;60.22;101082.14;106889;1287;75225;-77
2022/05/03 02:08:13;;;;;;;2.10;0.80;;;;;;;7.01;60.46;101081.70;106880;1287;70594;-77
2022/05/03 02:11:12;;;;;;;1.50;0.80;;;;;;;6.95;60.62;101077.30;106683;1287;72795;-77
2022/05/03 02:17:04;;;;;;;4.10;0.70;;;;;;;6.83;61.12;101072.37;106908;1287;61340;-77
2022/05/03 02:19:43;;;;;;;1.20;0.80;;;;;;;6.81;61.27;101069.83;106854;1287;75018;-77
2022/05/03 02:22:12;;;;;;;1.00;0.70;;;;;;;6.78;61.34;101066.73;106865;1287;71701;-77
2022/05/03 02:24:44;;;;;;;1.40;0.70;;;;;;;6.77;61.51;101065.25;106876;1287;74630;-77
2022/05/03 02:27:11;;;;;;;3.30;1.00;;;;;;;6.76;61.65;101065.70;106899;1287;60104;-78
2022/05/03 02:29:45;;;;;;;1.10;0.70;;;;;;;6.75;61.99;101060.66;106883;1287;61519;-77
2022/05/03 02:32:17;;;;;;;4.00;0.90;;;;;;;6.76;62.03;101061.79;106960;1287;75089;-77
2022/05/03 02:34:53;;;;;;;2.70;0.90;;;;;;;6.78;62.34;101064.64;106867;1286;72384;-78
2022/05/03 02:37:24;;;;;;;1.40;0.70;;;;;;;6.78;62.31;101062.15;106890;1286;73411;-78
2022/05/03 02:39:58;;;;;;;1.20;0.80;;;;;;;6.78;62.42;101058.09;106866;1287;59538;-77
2022/05/03 02:42:25;;;;;;;3.50;0.90;;;;;;;6.79;62.44;101058.56;106912;1286;59298;-77
2022/05/03 02:44:56;;;;;;;1.10;0.60;;;;;;;6.78;62.47;101060.90;106863;1287;75000;-78
2022/05/03 02:47:34;;;;;;;1.60;0.90;;;;;;;6.77;62.50;101058.57;106922;1287;71429;-77
2022/05/03 02:50:21;;;;;;;1.50;0.80;;;;;;;6.78;62.96;101065.52;106841;1287;73239;-77
2022/05/03 02:52:51;;;;;;;1.40;0.80;;;;;;;6.77;62.84;101066.60;106896;1287;61096;-78
2022/05/03 02:55:21;;;;;;;1.60;0.90;;;;;;;6.77;62.70;101062.95;106905;1287;62849;-77
2022/05/03 02:58:26;;;;;;;1.30;0.70;;;;;;;6.76;63.29;101070.76;106902;1287;76073;-77
2022/05/03 03:01:47;;;;;;;1.70;1.10;;;;;;;6.75;63.13;101072.44;106372;1288;71367;-77
2022/05/03 03:04:34;;;;;;;4.10;0.90;;;;;;;6.73;63.51;101068.25;106544;1288;74049;-77
2022/05/03 03:07:03;;;;;;;1.70;0.90;;;;;;;6.72;63.67;101061.95;106936;1287;58935;-78
2022/05/03 03:10:04;;;;;;;1.10;0.70;;;;;;;6.71;63.73;101061.31;106860;1287;60603;-78
2022/05/03 03:12:34;;;;;;;3.80;1.10;;;;;;;6.71;63.80;101065.06;106863;1287;74861;-78
2022/05/03 03:15:07;;;;;;;1.70;0.70;;;;;;;6.70;63.99;101066.92;106780;1288;72800;-77
2022/05/03 03:17:48;;;;;;;1.60;0.80;;;;;;;6.69;64.24;101065.27;106756;1287;74821;-77
2022/05/03 03:20:17;;;;;;;2.70;0.90;;;;;;;6.67;64.07;101065.04;106740;1288;59772;-77
2022/05/03 03:22:46;;;;;;;3.20;1.00;;;;;;;6.66;64.11;101064.13;106891;1287;59278;-77
2022/05/03 03:25:17;;;;;;;2.50;1.50;;;;;;;6.65;63.99;101061.58;106913;1287;74966;-78
2022/05/03 03:27:49;;;;;;;1.80;0.80;;;;;;;6.66;64.18;101060.64;106890;1287;71567;-77
2022/05/03 03:30:20;;;;;;;1.70;1.00;;;;;;;6.67;64.36;101059.66;106896;1288;74141;-77
2022/05/03 03:32:56;;;;;;;1.10;0.80;;;;;;;6.67;64.18;101060.66;106876;1287;59575;-77
2022/05/03 03:35:24;;;;;;;1.80;1.00;;;;;;;6.68;64.29;101063.23;106902;1287;62154;-77
2022/05/03 03:37:52;;;;;;;1.60;0.80;;;;;;;6.67;64.14;101062.79;106753;1288;74938;-77
2022/05/03 03:40:20;;;;;;;1.70;0.90;;;;;;;6.66;64.50;101061.16;106609;1288;72591;-77
2022/05/03 03:42:47;;;;;;;1.10;0.70;;;;;;;6.64;64.69;101059.02;106693;1287;73003;-77
2022/05/03 03:45:16;;;;;;;3.50;1.00;;;;;;;6.61;64.66;101059.64;106700;1286;60923;-77
2022/05/03 03:47:44;;;;;;;2.20;1.00;;;;;;;6.59;64.72;101067.44;106611;1287;61572;-77
2022/05/03 03:50:12;;;;;;;2.00;1.10;;;;;;;6.56;64.82;101066.95;106339;1288;76637;-77
2022/05/03 03:52:42;;;;;;;1.40;0.90;;;;;;;6.55;65.12;101064.64;106467;1287;71146;-77
2022/05/03 03:55:10;;;;;;;2.00;0.90;;;;;;;6.55;65.17;101066.95;106673;1287;73113;-77
2022/05/03 03:57:37;;;;;;;3.80;1.00;;;;;;;6.54;65.36;101064.70;106668;1287;60869;-77
2022/05/03 04:00:07;;;;;;;3.20;1.30;;;;;;;6.54;65.26;101062.91;106691;1287;60620;-77
2022/05/03 04:02:35;;;;;;;1.80;0.90;;;;;;;6.56;65.19;101058.22;106676;1286;76385;-76
2022/05/03 04:05:02;;;;;;;2.80;0.80;;;;;;;6.56;65.54;101061.33;106685;1287;72864;-76
2022/05/03 04:07:29;;;;;;;1.90;1.00;;;;;;;6.56;65.46;101052.95;106644;1287;74635;-77
2022/05/03 04:09:55;;;;;;;5.40;1.00;;;;;;;6.56;65.46;101055.02;106666;1287;60734;-76
2022/05/03 04:12:22;;;;;;;1.40;0.80;;;;;;;6.56;65.86;101059.48;106716;1287;59260;-76
2022/05/03 04:14:49;;;;;;;4.20;1.20;;;;;;;6.54;65.87;101060.17;106550;1288;76980;-76
2022/05/03 04:17:15;;;;;;;3.50;1.00;;;;;;;6.52;65.79;101064.83;106720;1287;59530;-76
2022/05/03 04:19:43;;;;;;;2.00;0.90;;;;;;;6.50;66.02;101065.18;106633;1286;74686;-78
2022/05/03 04:22:42;;;;;;;2.50;0.80;;;;;;;6.51;66.17;101067.73;106820;1287;59663;-76
2022/05/03 04:25:09;;;;;;;3.80;0.90;;;;;;;6.51;65.76;101067.74;106535;1287;62331;-78
2022/05/03 04:27:36;;;;;;;2.10;1.20;;;;;;;6.52;66.36;101074.35;106715;1288;76230;-78
2022/05/03 04:30:04;;;;;;;2.30;1.20;;;;;;;6.54;66.35;101073.46;105991;1287;71627;-79
2022/05/03 04:32:32;;;;;;;1.70;1.00;;;;;;;6.58;66.27;101078.08;107102;1287;73180;-79
2022/05/03 04:34:59;;;;;;;3.30;1.10;;;;;;;6.62;66.38;101082.11;107111;1287;59832;-79
2022/05/03 04:37:26;;;;;;;5.40;1.30;;;;;;;6.66;66.12;101075.70;107022;1287;60589;-79
2022/05/03 04:39:53;;;;;;;3.80;1.20;;;;;;;6.70;66.14;101075.87;105967;1287;75105;-79
2022/05/03 04:42:20;;;;;;;1.70;1.10;;;;;;;6.73;66.15;101081.77;105369;1287;71015;-79
2022/05/03 04:44:46;;;;;;;3.60;1.30;;;;;;;6.77;65.95;101084.38;105152;1287;61709;-79
2022/05/03 04:47:13;;;;;;;3.30;1.30;;;;;;;6.82;66.09;101088.36;105731;1288;61456;-78
2022/05/03 04:49:39;;;;;;;2.90;1.50;;;;;;;6.86;66.06;101083.89;105197;1287;61301;-79
2022/05/03 04:52:07;;;;;;;2.70;1.30;;;;;;;6.90;65.79;101085.66;105288;1288;75086;-79
2022/05/03 04:54:36;;;;;;;10.00;1.40;;;;;;;6.94;65.96;101084.40;105256;1288;72743;-78
2022/05/03 04:57:05;;;;;;;3.80;1.50;;;;;;;6.97;66.11;101086.77;105206;1287;73995;-79
2022/05/03 04:59:32;;;;;;;5.20;1.40;;;;;;;6.99;65.92;101094.34;105110;1287;61391;-79
2022/05/03 05:01:58;;;;;;;13.30;2.30;;;;;;;7.02;66.28;101095.63;105083;1288;61183;-79
2022/05/03 05:04:25;;;;;;;6.00;2.10;;;;;;;7.04;66.16;101092.63;105136;1287;76420;-78
2022/05/03 05:06:51;;;;;;;3.70;1.80;;;;;;;7.06;66.28;101094.41;105079;1287;60064;-77
2022/05/03 05:09:20;;;;;;;16.50;3.30;;;;;;;7.08;66.29;101094.08;105159;1287;72767;-79
2022/05/03 05:11:49;;;;;;;7.60;2.80;;;;;;;7.08;66.46;101091.94;104995;1288;61357;-79
2022/05/03 05:14:19;;;;;;;12.10;2.90;;;;;;;7.09;66.45;101093.04;105214;1287;61246;-78
2022/05/03 05:16:48;;;;;;;15.40;2.50;;;;;;;7.12;66.68;101091.02;105156;1287;73914;-78
2022/05/03 05:19:16;;;;;;;8.40;2.60;;;;;;;7.15;66.73;101097.38;107008;1286;72399;-78
2022/05/03 05:21:42;;;;;;;7.40;2.40;;;;;;;7.21;66.94;101099.83;107160;1287;72620;-78
2022/05/03 05:24:11;;;;;;;9.30;2.10;;;;;;;7.25;66.80;101095.41;107111;1287;60173;-78
2022/05/03 05:26:38;;;;;;;4.70;1.80;;;;;;;7.29;66.92;101094.54;107068;1287;61723;-79
2022/05/03 05:29:05;;;;;;;7.30;2.60;;;;;;;7.32;67.00;101094.06;107080;1287;74812;-78
2022/05/03 05:31:31;;;;;;;8.00;2.40;;;;;;;7.37;66.77;101099.61;107083;1286;71614;-78
2022/05/03 05:33:58;;;;;;;18.10;4.80;;;;;;;7.38;66.65;101097.55;107027;1287;73032;-77
2022/05/03 05:36:24;;;;;;;23.50;6.80;;;;;;;7.40;66.87;101099.48;107047;1285;59864;-78
2022/05/03 05:38:51;;;;;;;27.20;8.90;;;;;;;7.39;66.71;101104.88;107071;1287;59246;-78
2022/05/03 05:41:18;;;;;;;35.80;7.30;;;;;;;7.37;66.77;101104.15;107102;1287;58859;-78
2022/05/03 05:43:47;;;;;;;25.00;7.10;;;;;;;7.39;66.94;101102.92;107100;1287;71555;-79
2022/05/03 05:46:14;;;;;;;35.80;7.20;;;;;;;7.41;67.06;101103.85;105365;1287;71766;-78
2022/05/03 05:48:41;;;;;;;26.90;7.80;;;;;;;7.44;67.06;101103.48;105822;1287;62859;-81
2022/05/03 05:51:08;;;;;;;17.40;6.40;;;;;;;7.54;67.18;101105.23;105770;1286;58995;-79
2022/05/03 05:53:34;;;;;;;21.80;5.40;;;;;;;7.64;67.18;101107.61;105154;1287;74994;-79
2022/05/03 05:56:03;;;;;;;12.50;5.10;;;;;;;7.71;67.37;101109.36;104976;1288;61206;-78
2022/05/03 05:58:33;;;;;;;12.70;3.60;;;;;;;7.78;67.43;101111.89;105002;1287;74492;-78
2022/05/03 06:01:00;;;;;;;7.70;3.80;;;;;;;7.88;67.58;101109.42;104908;1288;61144;-78
2022/05/03 06:03:28;;;;;;;19.20;8.90;;;;;;;7.99;67.82;101110.42;104851;1287;61164;-79
2022/05/03 06:05:59;;;;;;;9.20;3.50;;;;;;;8.12;67.62;101107.91;104831;1287;75115;-77
2022/05/03 06:08:26;;;;;;;7.60;3.20;;;;;;;8.25;66.66;101110.27;104736;1288;71306;-77
2022/05/03 06:10:52;;;;;;;9.30;3.10;;;;;;;8.34;66.38;101114.45;105122;1288;73992;-80
2022/05/03 06:13:19;;;;;;;5.20;2.80;;;;;;;8.45;66.15;101114.65;105058;1288;61313;-78
2022/05/03 06:15:46;;;;;;;3.70;2.30;;;;;;;8.55;65.49;101113.42;105005;1288;61504;-79
2022/05/03 06:18:13;;;;;;;6.90;3.20;;;;;;;8.66;64.88;101114.85;104976;1288;76094;-78
2022/05/03 06:20:39;;;;;;;6.20;2.70;;;;;;;8.76;64.80;101116.98;104941;1287;71395;-78
2022/05/03 06:23:11;;;;;;;9.60;2.90;;;;;;;8.86;64.54;101119.38;107080;1287;71967;-77
2022/05/03 06:25:38;;;;;;;7.20;4.20;;;;;;;8.96;64.13;101122.27;106933;1288;60756;-77
2022/05/03 06:28:05;;;;;;;11.40;3.60;;;;;;;9.05;63.35;101121.86;106953;1288;60431;-78
2022/05/03 06:30:31;;;;;;;4.60;2.20;;;;;;;9.18;62.89;101118.48;106978;1290;75147;-78
2022/05/03 06:32:58;;;;;;;5.40;2.50;;;;;;;9.30;61.60;101119.59;107087;1286;72156;-78
2022/05/03 06:35:26;;;;;;;4.70;2.30;;;;;;;9.38;60.10;101122.10;106988;1288;74268;-77
2022/05/03 06:37:52;;;;;;;6.40;2.10;;;;;;;9.48;59.36;101129.55;107113;1287;60698;-78
2022/05/03 06:40:19;;;;;;;8.00;2.60;;;;;;;9.58;58.37;101133.33;107095;1287;60743;-79
2022/05/03 06:42:46;;;;;;;3.30;1.60;;;;;;;9.68;58.33;101134.06;107143;1287;59207;-78
2022/05/03 06:45:12;;;;;;;3.80;2.00;;;;;;;9.76;57.44;101130.85;106986;1288;72380;-78
2022/05/03 06:47:44;;;;;;;6.20;2.60;;;;;;;9.88;56.92;101131.98;107085;1287;72888;-78
2022/05/03 06:50:11;;;;;;;3.60;1.80;;;;;;;10.00;55.61;101134.33;106978;1290;60366;-77
2022/05/03 06:52:38;;;;;;;4.80;1.70;;;;;;;10.10;55.24;101138.38;107021;1288;61955;-78
2022/05/03 06:55:05;;;;;;;2.70;1.40;;;;;;;10.21;55.22;101138.67;106576;1288;74873;-78
2022/05/03 06:57:33;;;;;;;3.60;1.30;;;;;;;10.30;53.90;101137.39;107155;1287;72658;-77
2022/05/03 07:00:01;;;;;;;2.70;1.30;;;;;;;10.33;51.60;101140.33;107111;1287;73096;-78
2022/05/03 07:02:32;;;;;;;5.20;1.50;;;;;;;10.41;51.65;101135.70;106953;1287;62168;-78
2022/05/03 07:04:59;;;;;;;4.20;1.30;;;;;;;10.49;51.48;101138.40;106987;1287;60345;-78
2022/05/03 07:07:30;;;;;;;4.10;1.30;;;;;;;10.60;51.32;101136.98;106984;1287;76181;-78
2022/05/03 07:09:57;;;;;;;4.60;1.70;;;;;;;10.70;50.67;101138.73;106919;1288;72470;-78
2022/05/03 07:12:23;;;;;;;2.80;1.20;;;;;;;10.83;49.09;101138.77;106985;1287;74113;-78
2022/05/03 07:14:50;;;;;;;2.50;1.00;;;;;;;10.91;47.24;101144.77;106868;1288;61500;-78
2022/05/03 07:22:51;;;;;;;2.40;0.80;;;;;;;11.26;45.83;101144.92;104330;1288;71984;-79
2022/05/03 07:25:18;;;;;;;4.90;0.90;;;;;;;11.38;45.71;101145.84;104594;1288;74648;-78
2022/05/03 07:27:48;;;;;;;2.10;1.00;;;;;;;11.49;46.26;101142.08;104650;1287;61345;-79
2022/05/03 07:30:15;;;;;;;1.80;1.40;;;;;;;11.61;45.94;101137.72;104638;1288;61409;-79
2022/05/03 07:32:43;;;;;;;2.10;0.80;;;;;;;11.69;46.16;101137.55;104209;1288;75975;-78
2022/05/03 07:35:10;;;;;;;2.80;1.50;;;;;;;11.79;46.18;101146.10;104390;1290;71461;-78
2022/05/03 07:37:38;;;;;;;2.20;1.00;;;;;;;11.88;46.58;101141.43;104493;1287;73419;-79
2022/05/03 07:40:06;;;;;;;2.10;1.10;;;;;;;11.98;46.23;101139.97;105105;1288;60629;-79
2022/05/03 07:42:33;;;;;;;1.60;0.90;;;;;;;12.08;46.52;101139.92;105067;1287;61337;-78
2022/05/03 07:44:59;;;;;;;5.30;2.40;;;;;;;12.20;46.65;101141.52;104238;1288;74935;-78
2022/05/03 07:47:26;;;;;;;6.50;1.40;;;;;;;12.26;46.38;101139.42;104316;1288;61281;-79
2022/05/03 07:49:53;;;;;;;1.80;1.30;;;;;;;12.31;46.65;101139.98;104313;1288;63707;-78
2022/05/03 07:52:19;;;;;;;4.70;1.80;;;;;;;12.41;47.37;101135.42;104358;1288;61396;-78
2022/05/03 07:54:46;;;;;;;4.60;2.30;;;;;;;12.51;47.30;101137.67;104419;1288;62040;-79
2022/05/03 07:57:12;;;;;;;4.70;1.60;;;;;;;12.56;47.77;101142.54;104445;1287;61408;-79
2022/05/03 07:59:39;;;;;;;4.60;1.40;;;;;;;12.60;47.65;101140.71;104292;1287;61319;-78
2022/05/03 08:02:07;;;;;;;6.70;1.70;;;;;;;12.68;48.12;101136.84;104398;1288;71963;-78
2022/05/03 08:04:34;;;;;;;;;;;;;;;12.76;47.31;101139.70;106965;1287;60244;-78
2022/05/03 08:07:00;;;;;;;7.10;1.70;;;;;;;12.84;47.53;101141.46;106943;1287;58538;-78
2022/05/03 08:09:27;;;;;;;8.50;3.70;;;;;;;12.93;47.50;101140.92;106997;1287;59395;-78
2022/05/03 08:11:54;;;;;;;10.40;2.00;;;;;;;13.03;47.87;101145.98;106935;1287;71599;-79
2022/05/03 08:14:21;;;;;;;8.80;2.60;;;;;;;13.13;47.21;101148.95;106702;1290;73823;-79
2022/05/03 08:16:48;;;;;;;11.10;6.20;;;;;;;13.21;47.39;101148.10;106946;1287;61374;-79
2022/05/03 08:19:14;;;;;;;4.20;1.80;;;;;;;13.31;47.31;101144.16;106961;1287;60248;-79
2022/05/03 08:21:41;;;;;;;6.30;1.40;;;;;;;13.36;47.28;101147.49;106932;1287;74917;-79
2022/05/03 08:24:07;;;;;;;9.30;2.70;;;;;;;13.39;47.30;101143.40;106903;1288;59487;-79
2022/05/03 08:26:34;;;;;;;6.20;2.30;;;;;;;13.52;47.89;101146.11;106913;1287;59350;-79
2022/05/03 08:29:01;;;;;;;5.50;2.50;;;;;;;13.63;47.63;101148.52;106665;1289;59233;-78
2022/05/03 08:31:27;;;;;;;5.00;2.50;;;;;;;13.70;46.76;101153.92;106944;1287;60494;-79
2022/05/03 08:33:54;;;;;;;7.00;3.40;;;;;;;13.76;46.90;101152.24;106965;1288;74855;-78
2022/05/03 08:36:21;;;;;;;4.00;2.20;;;;;;;13.85;46.84;101151.37;106927;1288;59251;-78
2022/05/03 08:44:22;;;;;;;6.80;2.20;;;;;;;13.94;46.36;101157.42;106922;1288;61095;-78
2022/05/03 08:46:50;;;;;;;4.70;2.00;;;;;;;13.91;47.11;101157.64;106838;1290;75561;-79
2022/05/03 08:49:18;;;;;;;3.50;2.10;;;;;;;13.97;47.31;101161.58;106958;1287;72500;-79
2022/05/03 08:51:44;;;;;;;3.80;2.00;;;;;;;14.02;47.30;101159.80;106922;1287;72785;-80
2022/05/03 08:54:11;;;;;;;5.50;2.60;;;;;;;14.14;47.90;101156.95;106901;1288;59437;-78
2022/05/03 08:56:38;;;;;;;3.80;2.20;;;;;;;14.28;47.78;101161.20;106962;1287;60451;-78
2022/05/03 08:59:05;;;;;;;4.60;2.40;;;;;;;14.35;47.10;101164.01;106933;1288;75024;-79
2022/05/03 09:01:31;;;;;;;5.10;3.10;;;;;;;14.36;47.12;101161.02;106948;1287;71490;-78
2022/05/03 09:03:58;;;;;;;7.90;2.90;;;;;;;14.41;47.75;101156.52;106733;1290;74050;-78
2022/05/03 09:06:48;;;;;;;4.50;2.50;;;;;;;14.50;47.13;101161.08;106944;1288;61683;-79
2022/05/03 09:09:16;;;;;;;5.20;2.70;;;;;;;14.49;46.25;101160.29;106935;1288;61546;-78
2022/05/03 09:11:46;;;;;;;8.50;2.60;;;;;;;14.51;46.34;101162.45;106810;1289;75043;-79
2022/05/03 09:14:27;;;;;;;5.60;2.80;;;;;;;14.50;46.20;101159.48;107035;1288;71632;-79
2022/05/03 09:16:53;;;;;;;5.30;2.90;;;;;;;14.54;46.24;101159.40;107075;1288;73057;-79
2022/05/03 09:19:25;;;;;;;3.60;2.10;;;;;;;14.59;46.49;101157.30;106909;1288;59174;-79
2022/05/03 09:25:04;;;;;;;3.30;2.00;;;;;;;14.63;46.33;101162.13;106937;1288;74913;-79
2022/05/03 09:27:31;;;;;;;4.80;2.70;;;;;;;14.65;46.30;101159.46;106960;1287;72716;-79
2022/05/03 09:30:07;;;;;;;5.50;2.80;;;;;;;14.68;46.21;101156.36;106957;1287;73057;-78
2022/05/03 09:32:42;;;;;;;3.80;2.30;;;;;;;14.83;46.09;101151.13;106816;1287;60642;-79
2022/05/03 09:35:32;;;;;;;4.70;2.20;;;;;;;15.04;46.13;101147.45;106982;1287;60565;-79
2022/05/03 09:37:59;;;;;;;5.50;1.90;;;;;;;15.19;45.54;101154.13;106916;1287;74915;-78
2022/05/03 09:40:26;;;;;;;7.00;2.60;;;;;;;15.25;44.89;101154.02;106961;1288;71205;-79
2022/05/03 09:42:54;;;;;;;4.40;2.10;;;;;;;15.32;44.83;101152.00;106457;1287;668907;-80
2022/05/03 09:45:25;;;;;;;4.00;2.20;;;;;;;15.41;44.85;101150.25;104752;1291;61309;-78
2022/05/03 09:47:56;;;;;;;3.50;2.00;;;;;;;15.54;44.67;101148.24;106930;1287;62067;-78
2022/05/03 09:50:29;;;;;;;3.70;2.40;;;;;;;15.64;44.63;101141.06;106961;1287;75948;-78
2022/05/03 09:52:56;;;;;;;3.90;2.00;;;;;;;15.74;43.98;101143.06;106960;1287;72930;-78
2022/05/03 09:55:32;;;;;;;3.40;2.20;;;;;;;15.81;43.80;101139.48;106934;1287;73164;-79
2022/05/03 09:58:01;;;;;;;3.60;2.10;;;;;;;15.88;43.16;101138.33;106859;1288;61223;-78
2022/05/03 10:00:27;;;;;;;3.80;2.30;;;;;;;15.87;42.62;101134.80;106966;1288;61176;-78
2022/05/03 10:02:54;;;;;;;4.60;1.60;;;;;;;15.89;42.73;101137.91;106898;1288;76032;-79
2022/05/03 10:05:21;;;;;;;4.10;2.20;;;;;;;15.93;43.30;101131.55;106916;1288;71359;-78
2022/05/03 10:07:49;;;;;;;5.40;2.60;;;;;;;16.01;43.23;101133.20;106906;1287;73243;-78
2022/05/03 10:10:16;;;;;;;3.60;2.10;;;;;;;16.20;43.71;101125.97;106931;1288;60102;-78
2022/05/03 10:12:44;;;;;;;3.80;1.50;;;;;;;16.28;41.93;101133.36;106970;1287;60952;-78
2022/05/03 10:15:12;;;;;;;5.90;2.50;;;;;;;16.26;41.87;101133.40;106992;1287;75049;-78
2022/05/03 10:20:40;;;;;;;2.80;1.80;;;;;;;16.49;42.39;101125.05;106941;1287;72765;-78
2022/05/03 10:23:24;;;;;;;2.60;1.60;;;;;;;16.68;42.55;101121.78;106980;1287;61694;-78
2022/05/03 10:26:09;;;;;;;4.60;2.50;;;;;;;16.86;41.33;101123.96;106880;1289;61687;-78
2022/05/03 10:28:58;;;;;;;6.60;2.40;;;;;;;16.84;41.81;101125.58;106976;1287;75882;-78
2022/05/03 10:31:24;;;;;;;3.90;2.40;;;;;;;16.75;41.46;101119.56;106994;1288;74990;-79
2022/05/03 10:33:51;;;;;;;3.20;2.10;;;;;;;16.69;42.06;101120.00;105361;1290;74292;-79
2022/05/03 10:36:29;;;;;;;3.80;2.40;;;;;;;16.73;42.05;101115.60;104168;1288;61377;-78
2022/05/03 10:39:05;;;;;;;3.30;2.10;;;;;;;16.88;42.58;101109.41;104225;1288;61761;-79
2022/05/03 10:41:50;;;;;;;5.20;2.20;;;;;;;17.11;42.82;101108.66;104312;1287;74982;-78
2022/05/03 10:44:40;;;;;;;5.70;2.30;;;;;;;17.14;41.23;101110.17;104199;1288;72035;-78
2022/05/03 10:47:08;;;;;;;3.30;1.70;;;;;;;17.06;41.54;101104.73;104282;1288;72699;-78
2022/05/03 10:49:55;;;;;;;3.50;2.10;;;;;;;17.07;41.23;101109.02;106959;1288;61720;-78
2022/05/03 10:52:22;;;;;;;6.00;3.10;;;;;;;16.98;41.14;101102.70;106913;1288;60258;-78
2022/05/03 10:55:08;;;;;;;6.20;3.30;;;;;;;16.99;41.09;101100.27;106963;1287;74829;-79
2022/05/03 10:58:13;;;;;;;4.10;2.50;;;;;;;17.00;41.35;101097.95;106914;1288;72766;-79
2022/05/03 11:01:11;;;;;;;6.80;2.50;;;;;;;17.11;41.24;101090.09;106585;1288;72919;-79
2022/05/03 11:04:01;;;;;;;3.40;1.90;;;;;;;17.12;40.49;101089.05;106972;1287;60706;-79
2022/05/03 11:06:28;;;;;;;4.40;2.50;;;;;;;17.14;40.69;101084.89;107015;1288;60290;-80
2022/05/03 11:08:57;;;;;;;4.70;2.70;;;;;;;17.22;40.64;101082.98;107037;1287;74671;-79
2022/05/03 11:11:37;;;;;;;3.80;2.50;;;;;;;17.36;41.02;101079.07;106985;1288;71320;-79
2022/05/03 11:14:20;;;;;;;5.60;3.20;;;;;;;17.40;41.01;101080.63;106952;1288;73853;-79
2022/05/03 11:17:05;;;;;;;2.90;1.60;;;;;;;17.47;40.62;101074.67;106975;1287;60562;-79
2022/05/03 11:19:36;;;;;;;;;;;;;;;17.53;41.34;101076.71;106973;1287;60204;-79
2022/05/03 11:22:10;;;;;;;3.40;2.40;;;;;;;17.52;40.49;101077.41;105132;1288;73655;-78
2022/05/03 11:24:45;;;;;;;5.10;2.00;;;;;;;17.62;41.05;101069.66;104293;1288;72466;-78
2022/05/03 11:27:14;;;;;;;5.70;2.60;;;;;;;17.81;41.07;101070.84;104203;1289;74205;-78
2022/05/03 11:29:42;;;;;;;3.60;2.50;;;;;;;17.91;40.99;101070.55;106891;1288;60874;-79
2022/05/03 11:32:10;;;;;;;3.50;2.30;;;;;;;18.16;41.05;101069.38;106931;1288;60547;-78
2022/05/03 11:34:38;;;;;;;3.40;2.10;;;;;;;18.43;40.32;101062.75;106964;1287;76065;-78
2022/05/03 11:37:07;;;;;;;3.70;2.00;;;;;;;18.65;39.76;101065.39;106813;1290;70508;-78
2022/05/03 11:39:36;;;;;;;4.40;2.90;;;;;;;18.68;38.79;101063.55;106976;1288;73734;-78
2022/05/03 11:42:09;;;;;;;4.40;2.90;;;;;;;18.54;39.34;101060.36;106787;1290;61870;-78
2022/05/03 11:44:43;;;;;;;4.30;2.60;;;;;;;18.64;39.35;101058.80;106973;1287;60914;-78
2022/05/03 11:47:14;;;;;;;4.80;2.00;;;;;;;18.89;39.14;101051.30;107021;1287;74971;-79
2022/05/03 11:49:42;;;;;;;5.50;2.40;;;;;;;19.03;38.83;101059.20;106887;1290;71464;-78
2022/05/03 11:57:43;;;;;;;;;;;;;;;19.15;37.53;101057.23;106988;1287;61482;-78
2022/05/03 12:00:11;;;;;;;2.50;1.30;;;;;;;19.45;36.13;101056.02;106940;1286;76022;-78
2022/05/03 12:02:41;;;;;;;7.40;2.50;;;;;;;19.84;35.58;101052.73;106944;1287;71349;-78
2022/05/03 12:07:36;;;;;;;4.20;2.40;;;;;;;20.77;35.05;101046.44;104317;1287;61348;-79
2022/05/03 12:10:28;;;;;;;3.00;2.00;;;;;;;21.05;33.83;101043.83;104213;1288;61363;-79
2022/05/03 12:13:16;;;;;;;5.10;2.00;;;;;;;21.38;33.42;101039.99;104252;1290;75613;-79
2022/05/03 12:15:45;;;;;;;4.50;2.20;;;;;;;21.48;32.71;101038.02;106902;1287;71337;-78